Time;durP1;ratioP1;P1;durP2;ratioP2;P2;SDS_P1;SDS_P2;PMS_P1;PMS_P2;Temp;Humidity;BMP_temperature;BMP_pressure;BME280_temperature;BME280_humidity;BME280_pressure;Samples;Min_cycle;Max_cycle;Signal;HPM_P1;HPM_P2
2023/02/02 00:04:43;;;;;;;31.53;4.93;;;8.90;99.90;;;;;;6320751;22;20018;-80
2023/02/02 00:07:09;;;;;;;33.73;5.10;;;9.00;99.90;;;;;;6369395;22;38771;-82
2023/02/02 00:09:39;;;;;;;31.33;4.57;;;9.00;99.90;;;;;;6369496;22;37542;-82
2023/02/02 00:12:23;;;;;;;25.77;4.80;;;9.00;99.90;;;;;;6368565;22;36376;-83
2023/02/02 00:14:52;;;;;;;27.50;5.07;;;9.00;99.90;;;;;;6369236;22;36158;-82
2023/02/02 00:17:18;;;;;;;22.23;4.10;;;8.90;99.90;;;;;;6365386;22;37784;-83
2023/02/02 00:19:45;;;;;;;25.97;5.00;;;8.90;99.90;;;;;;6372438;22;38763;-82
2023/02/02 00:22:11;;;;;;;31.80;4.97;;;9.00;99.90;;;;;;6366808;22;39032;-82
2023/02/02 00:24:37;;;;;;;19.40;3.40;;;8.90;99.90;;;;;;6363208;22;35775;-81
2023/02/02 00:27:03;;;;;;;26.97;4.33;;;9.00;99.90;;;;;;6343735;22;38766;-83
2023/02/02 00:29:34;;;;;;;25.33;3.87;;;9.00;99.90;;;;;;6340382;22;48031;-82
2023/02/02 00:32:00;;;;;;;30.67;5.87;;;9.00;99.90;;;;;;6343107;22;37679;-83
2023/02/02 00:34:33;;;;;;;29.13;4.80;;;9.00;99.90;;;;;;6370389;22;48139;-82
2023/02/02 00:37:17;;;;;;;29.85;4.88;;;9.10;99.90;;;;;;6367082;22;37796;-81
2023/02/02 00:39:44;;;;;;;27.20;5.40;;;9.00;99.90;;;;;;6345443;22;39848;-83
2023/02/02 00:42:11;;;;;;;28.40;4.77;;;9.10;99.90;;;;;;6325467;22;37974;-82
2023/02/02 00:47:31;;;;;;;39.13;6.40;;;9.10;99.90;;;;;;6369357;22;40649;-82
2023/02/02 00:49:57;;;;;;;22.40;3.90;;;9.10;99.90;;;;;;6366765;22;38800;-82
2023/02/02 00:52:29;;;;;;;24.87;4.20;;;9.10;99.90;;;;;;6364853;22;36881;-82
2023/02/02 00:55:04;;;;;;;25.85;4.40;;;9.10;99.90;;;;;;6370256;22;39656;-82
2023/02/02 00:57:30;;;;;;;26.87;4.17;;;9.00;99.90;;;;;;6357418;22;48907;-80
2023/02/02 01:00:02;;;;;;;23.43;4.40;;;9.10;99.90;;;;;;6401517;22;39214;-82
2023/02/02 01:02:28;;;;;;;24.63;5.60;;;9.10;99.90;;;;;;6369189;22;36182;-82
2023/02/02 01:04:54;;;;;;;30.10;4.17;;;9.10;99.90;;;;;;6395498;22;35587;-82
2023/02/02 01:07:20;;;;;;;29.27;5.40;;;9.00;99.90;;;;;;6370769;22;37884;-82
2023/02/02 01:09:46;;;;;;;28.20;4.93;;;9.10;99.90;;;;;;6398818;22;39187;-83
2023/02/02 01:12:13;;;;;;;33.33;4.80;;;9.00;99.90;;;;;;6401864;22;40592;-83
2023/02/02 01:14:39;;;;;;;24.03;4.30;;;9.00;99.90;;;;;;6400378;22;35970;-82
2023/02/02 01:17:05;;;;;;;27.63;4.23;;;9.10;99.90;;;;;;6382577;22;38643;-82
2023/02/02 01:19:32;;;;;;;23.67;3.67;;;9.10;99.90;;;;;;6370846;22;38116;-82
2023/02/02 01:22:03;;;;;;;30.80;4.97;;;9.10;99.90;;;;;;6397436;22;37943;-81
2023/02/02 01:24:29;;;;;;;26.17;5.40;;;9.20;99.90;;;;;;6352126;22;49197;-82
2023/02/02 01:26:55;;;;;;;28.10;4.30;;;9.20;99.90;;;;;;6396190;22;38011;-82
2023/02/02 01:29:22;;;;;;;25.23;4.17;;;9.20;99.90;;;;;;6370747;22;37049;-82
2023/02/02 01:31:48;;;;;;;25.23;4.43;;;9.20;99.90;;;;;;6371996;22;36994;-82
2023/02/02 01:34:15;;;;;;;30.83;4.70;;;9.20;99.90;;;;;;6403693;22;40065;-83
2023/02/02 01:36:41;;;;;;;22.20;4.20;;;9.10;99.90;;;;;;6372602;22;38464;-82
2023/02/02 01:39:16;;;;;;;30.13;4.20;;;9.10;99.90;;;;;;6399818;22;38781;-83
2023/02/02 01:41:43;;;;;;;24.17;4.40;;;9.10;99.90;;;;;;6384180;22;38127;-82
2023/02/02 01:44:46;;;;;;;24.13;4.90;;;9.10;99.90;;;;;;6371374;22;37098;-82
2023/02/02 01:47:13;;;;;;;21.80;4.13;;;9.10;99.90;;;;;;6370828;22;37836;-82
2023/02/02 01:49:40;;;;;;;18.73;3.63;;;9.10;99.90;;;;;;6373774;22;38651;-82
2023/02/02 01:52:08;;;;;;;22.83;4.57;;;9.10;99.90;;;;;;6369955;22;36780;-82
2023/02/02 01:54:42;;;;;;;28.33;4.43;;;9.10;99.90;;;;;;6363101;22;36737;-82
2023/02/02 01:57:30;;;;;;;21.17;4.13;;;9.10;99.90;;;;;;6366217;22;38397;-83
2023/02/02 02:00:02;;;;;;;24.67;3.83;;;9.20;99.90;;;;;;6342651;22;38803;-82
2023/02/02 02:05:03;;;;;;;;;;;9.30;99.90;;;;;;6339047;22;20024;-82
2023/02/02 02:07:29;;;;;;;19.97;5.03;;;9.30;99.90;;;;;;6337564;22;39013;-81
2023/02/02 02:10:08;;;;;;;27.47;4.77;;;9.30;99.90;;;;;;6308440;22;37659;-83
2023/02/02 02:12:49;;;;;;;21.27;4.27;;;9.20;99.90;;;;;;6337150;22;47502;-83
2023/02/02 02:18:15;;;;;;;27.10;4.53;;;9.20;99.90;;;;;;6337274;22;40466;-83
2023/02/02 02:28:03;;;;;;;28.93;4.33;;;9.20;99.90;;;;;;6336646;22;50689;-82
2023/02/02 02:30:59;;;;;;;29.07;4.73;;;9.20;99.90;;;;;;6335564;22;47162;-83
2023/02/02 02:33:43;;;;;;;28.83;4.93;;;9.20;99.90;;;;;;6307736;22;38657;-82
2023/02/02 02:36:30;;;;;;;33.63;4.07;;;9.20;99.90;;;;;;6309432;22;36936;-82
2023/02/02 02:39:10;;;;;;;27.20;4.63;;;9.20;99.90;;;;;;6339835;22;38633;-83
2023/02/02 02:41:44;;;;;;;25.63;4.63;;;9.10;99.90;;;;;;6308052;22;48184;-81
2023/02/02 02:44:15;;;;;;;29.43;5.03;;;9.10;99.90;;;;;;6335088;22;38913;-82
2023/02/02 02:46:42;;;;;;;23.73;4.57;;;9.10;99.90;;;;;;6337658;22;38559;-82
2023/02/02 02:49:10;;;;;;;21.87;5.60;;;9.10;99.90;;;;;;6332773;22;36196;-82
2023/02/02 02:51:51;;;;;;;25.10;4.60;;;9.10;99.90;;;;;;6335787;22;37845;-83
2023/02/02 02:54:23;;;;;;;19.87;3.67;;;9.10;99.90;;;;;;6310963;22;38426;-82
2023/02/02 02:57:20;;;;;;;19.20;3.63;;;9.10;99.90;;;;;;6312505;22;37442;-82
2023/02/02 02:59:46;;;;;;;25.70;3.93;;;9.10;99.90;;;;;;6339102;22;49147;-82
2023/02/02 03:02:29;;;;;;;24.47;4.63;;;9.10;99.90;;;;;;6312115;22;38653;-82
2023/02/02 03:05:04;;;;;;;34.00;4.25;;;9.10;99.90;;;;;;6310897;22;38481;-82
2023/02/02 03:08:06;;;;;;;24.43;4.40;;;9.10;99.90;;;;;;6335511;22;39166;-82
2023/02/02 03:10:35;;;;;;;29.33;4.20;;;9.10;99.90;;;;;;6305854;22;48407;-82
2023/02/02 03:13:07;;;;;;;23.57;4.13;;;9.10;99.90;;;;;;6337361;22;38875;-82
2023/02/02 03:15:35;;;;;;;29.73;4.85;;;9.10;99.90;;;;;;6308377;22;48123;-82
2023/02/02 03:18:02;;;;;;;29.30;3.83;;;9.10;99.90;;;;;;6312056;22;37596;-82
2023/02/02 03:20:31;;;;;;;20.60;3.87;;;9.10;99.90;;;;;;6334772;22;48780;-81
2023/02/02 03:22:58;;;;;;;23.23;3.10;;;9.10;99.90;;;;;;6312340;22;38989;-82
2023/02/02 03:25:34;;;;;;;22.27;3.87;;;9.10;99.90;;;;;;6308857;22;39847;-82
2023/02/02 03:28:00;;;;;;;26.37;4.90;;;9.00;99.90;;;;;;6310641;22;37393;-83
2023/02/02 03:30:27;;;;;;;27.53;4.27;;;9.00;99.90;;;;;;6308026;22;46541;-82
2023/02/02 03:32:55;;;;;;;26.73;3.70;;;9.00;99.90;;;;;;6340679;22;40371;-83
2023/02/02 03:35:25;;;;;;;25.97;4.43;;;9.00;99.90;;;;;;6310191;22;37597;-82
2023/02/02 03:37:51;;;;;;;24.40;3.70;;;9.00;99.90;;;;;;6314265;22;37210;-82
2023/02/02 03:40:18;;;;;;;24.37;3.83;;;9.10;99.90;;;;;;6311195;22;37033;-82
2023/02/02 03:42:44;;;;;;;24.00;3.77;;;9.00;99.90;;;;;;6338019;22;38886;-83
2023/02/02 03:45:18;;;;;;;17.53;3.13;;;9.00;99.90;;;;;;6339185;22;38731;-82
2023/02/02 03:50:46;;;;;;;22.03;3.53;;;9.10;99.90;;;;;;6348561;22;20075;-83
2023/02/02 03:53:13;;;;;;;16.80;3.73;;;9.10;99.90;;;;;;6300743;22;39033;-83
2023/02/02 03:55:40;;;;;;;13.67;3.27;;;9.10;99.90;;;;;;6369777;22;40002;-80
2023/02/02 03:58:06;;;;;;;22.83;4.33;;;9.20;99.90;;;;;;6370573;22;38957;-83
2023/02/02 04:00:34;;;;;;;17.07;3.10;;;9.10;99.90;;;;;;6371652;22;38697;-82
2023/02/02 04:03:00;;;;;;;22.10;3.87;;;9.10;99.90;;;;;;6370989;22;39352;-83
2023/02/02 04:05:28;;;;;;;21.17;5.07;;;9.20;99.90;;;;;;6370976;22;39909;-83
2023/02/02 04:07:57;;;;;;;21.13;2.93;;;9.10;99.90;;;;;;6370855;22;37640;-83
2023/02/02 04:10:29;;;;;;;22.13;3.47;;;9.10;99.90;;;;;;6349069;22;37854;-83
2023/02/02 04:12:56;;;;;;;27.00;4.53;;;9.10;99.90;;;;;;6370043;22;37772;-83
2023/02/02 04:15:22;;;;;;;20.43;3.93;;;9.10;99.90;;;;;;6341309;22;37529;-81
2023/02/02 04:17:48;;;;;;;16.97;3.70;;;9.10;99.90;;;;;;6342174;22;37804;-80
2023/02/02 04:20:15;;;;;;;21.93;4.00;;;9.10;99.90;;;;;;6335013;22;35869;-81
2023/02/02 04:22:43;;;;;;;17.60;3.43;;;9.10;99.90;;;;;;6369831;22;40300;-81
2023/02/02 04:25:10;;;;;;;21.50;3.17;;;9.10;99.90;;;;;;6369300;22;39954;-80
2023/02/02 04:27:40;;;;;;;21.00;3.57;;;9.10;99.90;;;;;;6336009;22;37381;-81
2023/02/02 04:30:13;;;;;;;24.37;3.00;;;9.10;99.90;;;;;;6367156;22;37595;-80
2023/02/02 04:32:39;;;;;;;27.20;3.80;;;9.10;99.90;;;;;;6372357;22;40116;-81
2023/02/02 04:35:21;;;;;;;21.47;3.47;;;9.10;99.90;;;;;;6370551;22;38284;-81
2023/02/02 04:37:49;;;;;;;24.65;4.35;;;9.00;99.90;;;;;;6351965;22;36453;-80
2023/02/02 04:40:15;;;;;;;21.03;3.43;;;9.00;99.90;;;;;;6334814;22;37586;-83
2023/02/02 04:42:44;;;;;;;20.90;3.63;;;9.00;99.90;;;;;;6337284;22;38717;-82
2023/02/02 04:45:10;;;;;;;24.00;3.63;;;9.00;99.90;;;;;;6308868;22;38618;-83
2023/02/02 04:50:21;;;;;;;23.10;4.27;;;8.90;99.90;;;;;;6362704;22;20015;-80
2023/02/02 04:53:01;;;;;;;23.53;4.33;;;9.00;99.90;;;;;;6336599;22;40172;-83
2023/02/02 04:59:02;;;;;;;23.47;3.67;;;9.00;99.90;;;;;;6307147;22;20024;-82
2023/02/02 05:01:29;;;;;;;24.30;4.07;;;9.00;99.90;;;;;;6266985;22;38722;-81
2023/02/02 05:06:31;;;;;;;27.53;4.17;;;9.00;99.90;;;;;;6397456;22;20071;-83
2023/02/02 05:09:16;;;;;;;24.13;4.27;;;9.00;99.90;;;;;;6402296;22;37681;-83
2023/02/02 05:11:43;;;;;;;21.30;3.27;;;9.00;99.90;;;;;;6375515;22;47076;-83
2023/02/02 05:14:10;;;;;;;25.37;3.70;;;9.00;99.90;;;;;;6403806;22;40298;-83
2023/02/02 05:16:44;;;;;;;20.63;3.10;;;9.00;99.90;;;;;;6375594;22;39586;-83
2023/02/02 05:19:11;;;;;;;25.10;3.67;;;9.00;99.90;;;;;;6400532;22;36981;-83
2023/02/02 05:21:38;;;;;;;19.97;4.17;;;9.00;99.90;;;;;;6347973;22;37877;-83
2023/02/02 05:24:11;;;;;;;23.77;3.13;;;9.10;99.90;;;;;;6363845;22;38699;-83
2023/02/02 05:26:37;;;;;;;20.50;3.43;;;9.10;99.90;;;;;;6376954;22;37258;-83
2023/02/02 05:29:05;;;;;;;19.67;3.47;;;9.00;99.90;;;;;;6364175;22;36651;-80
2023/02/02 05:31:38;;;;;;;22.63;3.80;;;9.10;99.90;;;;;;6315495;22;38248;-83
2023/02/02 05:34:10;;;;;;;;;;;9.00;99.90;;;;;;6320555;22;39003;-82
2023/02/02 05:39:49;;;;;;;22.20;3.42;;;9.00;99.90;;;;;;6337251;22;20023;-80
2023/02/02 05:42:16;;;;;;;19.43;3.70;;;9.00;99.90;;;;;;6312155;22;38586;-83
2023/02/02 05:44:42;;;;;;;27.73;4.77;;;8.90;99.90;;;;;;6308758;22;38350;-83
2023/02/02 05:47:09;;;;;;;18.53;4.50;;;9.00;99.90;;;;;;6305705;22;37431;-82
2023/02/02 05:49:35;;;;;;;17.47;3.77;;;9.00;99.90;;;;;;6321533;22;37045;-83
2023/02/02 05:52:04;;;;;;;26.57;3.67;;;9.00;99.90;;;;;;6338426;22;37859;-81
2023/02/02 05:54:30;;;;;;;20.17;3.53;;;8.90;99.90;;;;;;6335264;22;48204;-83
2023/02/02 06:00:17;;;;;;;27.07;3.47;;;9.00;99.90;;;;;;6301857;22;20034;-82
2023/02/02 06:12:20;;;;;;;24.67;5.07;;;8.90;99.90;;;;;;6268474;22;20008;31
2023/02/02 06:21:02;;;;;;;27.87;4.10;;;9.00;99.90;;;;;;6327942;22;20007;-83
2023/02/02 06:23:37;;;;;;;26.10;4.00;;;9.00;99.90;;;;;;6285648;22;47010;31
2023/02/02 06:36:04;;;;;;;20.77;3.60;;;9.00;99.90;;;;;;6318689;22;50591;-80
2023/02/02 06:41:12;;;;;;;19.10;4.03;;;9.00;99.90;;;;;;6320458;22;20011;-80
2023/02/02 06:52:12;;;;;;;24.17;4.07;;;9.00;99.90;;;;;;6284345;22;20008;-80
2023/02/02 07:01:50;;;;;;;26.80;3.90;;;9.00;99.90;;;;;;6298532;22;21005;-80
2023/02/02 07:27:18;;;;;;;27.03;4.40;;;8.80;99.90;;;;;;6342908;22;50706;-81
2023/02/02 07:35:38;;;;;;;30.37;3.80;;;8.70;99.90;;;;;;6295820;22;20024;-82
2023/02/02 07:39:02;;;;;;;35.47;3.70;;;8.60;99.90;;;;;;6355161;22;37007;-82
2023/02/02 07:51:28;;;;;;;23.13;3.70;;;8.60;99.90;;;;;;6304964;22;20027;-83
2023/02/02 07:57:17;;;;;;;21.47;3.23;;;8.60;99.90;;;;;;6304256;22;20029;-82
2023/02/02 08:19:36;;;;;;;28.27;4.17;;;9.00;99.90;;;;;;6265054;22;49000;-83
2023/02/02 08:24:39;;;;;;;21.70;3.77;;;9.00;99.90;;;;;;6313079;22;20010;-82
2023/02/02 08:29:42;;;;;;;31.57;3.83;;;9.10;99.90;;;;;;6337451;22;20024;-82
2023/02/02 08:34:50;;;;;;;23.27;3.80;;;9.10;99.90;;;;;;6353745;22;20008;-81
2023/02/02 08:37:17;;;;;;;27.87;3.27;;;9.20;99.90;;;;;;6356976;22;37397;-80
2023/02/02 08:39:44;;;;;;;20.60;4.13;;;9.20;99.90;;;;;;6359975;22;37857;-78
2023/02/02 08:44:49;;;;;;;27.40;4.27;;;9.20;99.90;;;;;;6348618;22;20741;-82
2023/02/02 08:47:30;;;;;;;19.17;3.30;;;9.20;99.90;;;;;;6340973;22;36928;-81
2023/02/02 08:50:33;;;;;;;17.30;3.13;;;9.30;99.90;;;;;;6322016;22;41155;-81
2023/02/02 08:53:05;;;;;;;26.27;3.67;;;9.30;99.90;;;;;;6309910;22;47322;-81
2023/02/02 08:55:58;;;;;;;25.15;3.90;;;9.30;99.90;;;;;;6305866;22;49375;-82
2023/02/02 08:59:08;;;;;;;19.97;3.83;;;9.40;99.90;;;;;;6283734;22;38320;-82
2023/02/02 09:08:00;;;;;;;17.13;3.37;;;9.50;99.90;;;;;;6368297;22;20007;-82
2023/02/02 09:10:30;;;;;;;20.63;3.10;;;9.50;99.90;;;;;;6339690;22;37326;-84
2023/02/02 09:12:57;;;;;;;21.77;3.37;;;9.40;99.90;;;;;;6370112;22;38788;-82
2023/02/02 09:15:31;;;;;;;20.60;3.30;;;9.50;99.90;;;;;;6369720;22;38517;-81
2023/02/02 09:18:10;;;;;;;23.07;3.07;;;9.50;99.90;;;;;;6345126;22;38263;-82
2023/02/02 09:20:59;;;;;;;16.20;2.70;;;9.50;99.90;;;;;;6339185;22;47509;-81
2023/02/02 09:23:29;;;;;;;25.63;3.83;;;9.50;99.90;;;;;;6341172;22;38132;-82
2023/02/02 09:26:19;;;;;;;24.23;3.67;;;9.50;99.90;;;;;;6344045;22;38713;-81
2023/02/02 09:29:10;;;;;;;17.97;3.43;;;9.50;99.90;;;;;;6359209;22;48979;-80
2023/02/02 09:31:51;;;;;;;28.43;3.77;;;9.60;99.90;;;;;;6288212;22;47416;-81
2023/02/02 09:34:28;;;;;;;20.53;3.37;;;9.60;99.90;;;;;;6320727;22;38777;-81
2023/02/02 09:37:01;;;;;;;23.97;3.37;;;9.60;99.90;;;;;;6337246;22;38042;-81
2023/02/02 09:39:27;;;;;;;16.63;3.13;;;9.70;99.90;;;;;;6314963;22;48929;-81
2023/02/02 09:42:28;;;;;;;16.87;2.60;;;9.90;99.90;;;;;;6356626;22;37759;-81
2023/02/02 09:44:54;;;;;;;21.97;3.00;;;10.10;99.90;;;;;;6326991;22;47301;-81
2023/02/02 09:47:58;;;;;;;20.40;3.70;;;10.30;99.90;;;;;;6328894;22;38020;-81
2023/02/02 09:50:50;;;;;;;22.87;3.13;;;10.30;99.90;;;;;;6355911;22;38918;-81
2023/02/02 09:53:36;;;;;;;20.97;3.47;;;10.30;99.90;;;;;;6329810;22;37408;-82
2023/02/02 09:56:07;;;;;;;20.07;3.50;;;10.30;99.90;;;;;;6332641;22;38165;-81
2023/02/02 09:58:35;;;;;;;24.27;3.47;;;10.30;99.90;;;;;;6332490;22;47258;-81
2023/02/02 10:01:17;;;;;;;24.10;2.90;;;10.30;99.90;;;;;;6333825;22;36818;-81
2023/02/02 10:04:06;;;;;;;20.05;3.08;;;10.30;99.90;;;;;;6330294;22;47301;-81
2023/02/02 10:06:42;;;;;;;19.60;3.00;;;10.40;99.90;;;;;;6358724;22;49027;-81
2023/02/02 10:09:43;;;;;;;14.33;2.40;;;10.30;99.90;;;;;;6360283;22;38700;-80
2023/02/02 10:12:51;;;;;;;14.23;3.07;;;10.20;99.90;;;;;;6335553;22;38234;-81
2023/02/02 10:15:29;;;;;;;17.27;3.03;;;10.20;99.90;;;;;;6335286;22;36333;-81
2023/02/02 10:18:10;;;;;;;15.67;3.47;;;10.20;99.90;;;;;;6337272;22;38343;-81
2023/02/02 10:20:59;;;;;;;16.03;3.63;;;10.20;99.90;;;;;;6333896;22;47154;-81
2023/02/02 10:23:32;;;;;;;18.67;2.90;;;10.20;99.90;;;;;;6361333;22;38076;-80
2023/02/02 10:26:29;;;;;;;13.77;3.28;;;10.30;99.90;;;;;;6336859;22;38076;-82
2023/02/02 10:29:08;;;;;;;16.07;2.70;;;10.20;99.90;;;;;;6364846;22;49073;-83
2023/02/02 10:32:00;;;;;;;15.20;3.40;;;10.30;99.90;;;;;;6320631;22;47398;-80
2023/02/02 10:34:52;;;;;;;19.77;3.47;;;10.50;99.90;;;;;;6337358;22;38707;-81
2023/02/02 10:37:39;;;;;;;15.55;2.90;;;10.50;99.90;;;;;;6336147;22;35872;-80
2023/02/02 10:40:18;;;;;;;19.43;3.10;;;10.50;99.90;;;;;;6365410;22;40458;-82
2023/02/02 10:45:42;;;;;;;19.70;3.17;;;10.40;99.90;;;;;;6200259;22;48932;-80
2023/02/02 10:48:21;;;;;;;17.30;2.83;;;10.50;99.90;;;;;;6334083;22;36254;-81
2023/02/02 10:50:54;;;;;;;18.17;3.60;;;10.60;99.90;;;;;;6338810;22;40569;-81
2023/02/02 10:53:24;;;;;;;14.73;2.78;;;10.70;99.90;;;;;;6365682;22;38351;-80
2023/02/02 10:56:10;;;;;;;17.87;3.00;;;10.70;99.90;;;;;;6333998;22;38107;-81
2023/02/02 10:58:55;;;;;;;19.43;3.37;;;10.60;99.90;;;;;;6337300;22;48476;-81
2023/02/02 11:01:22;;;;;;;18.47;2.97;;;10.50;99.90;;;;;;6334078;22;37729;-80
2023/02/02 11:06:48;;;;;;;19.50;3.40;;;10.60;99.90;;;;;;6351989;22;36994;-80
2023/02/02 11:06:51;;;;;;;16.02;2.80;;;10.70;99.90;;;;;;6359749;22;48565;-80
2023/02/02 11:09:31;;;;;;;24.25;3.20;;;10.70;99.90;;;;;;6363131;22;37847;-81
2023/02/02 11:12:29;;;;;;;16.33;2.83;;;10.70;99.90;;;;;;6334085;22;39313;-82
2023/02/02 11:15:07;;;;;;;20.20;3.00;;;10.70;99.90;;;;;;6359622;22;48071;-80
2023/02/02 11:17:34;;;;;;;15.13;2.45;;;10.60;99.90;;;;;;6360844;22;48315;-80
2023/02/02 11:20:16;;;;;;;16.27;2.70;;;10.60;99.90;;;;;;6364603;22;37271;-80
2023/02/02 11:22:43;;;;;;;15.13;3.13;;;10.60;99.90;;;;;;6356992;22;48894;-81
2023/02/02 11:25:33;;;;;;;15.40;2.20;;;10.70;99.90;;;;;;6316288;22;37434;-80
2023/02/02 11:28:35;;;;;;;18.42;3.10;;;10.60;99.90;;;;;;6357363;22;40368;-82
2023/02/02 11:31:01;;;;;;;18.57;3.20;;;10.50;99.90;;;;;;6248751;22;49258;-80
2023/02/02 11:33:34;;;;;;;16.07;2.73;;;10.30;99.90;;;;;;6325541;22;47540;-83
2023/02/02 11:36:21;;;;;;;15.43;3.15;;;10.20;99.90;;;;;;6360519;22;39231;-81
2023/02/02 11:39:20;;;;;;;18.73;3.57;;;10.20;99.90;;;;;;6351575;22;49897;-80
2023/02/02 11:41:50;;;;;;;24.00;3.10;;;10.30;99.90;;;;;;6321191;22;50622;-82
2023/02/02 11:44:34;;;;;;;19.37;2.97;;;10.20;99.90;;;;;;6326603;22;38406;-81
2023/02/02 11:47:07;;;;;;;16.73;2.83;;;10.30;99.90;;;;;;6327467;22;38623;-82
2023/02/02 11:49:42;;;;;;;16.00;2.57;;;10.20;99.90;;;;;;6347900;22;50111;-82
2023/02/02 11:52:22;;;;;;;13.33;2.23;;;10.10;99.90;;;;;;6333643;22;37889;-81
2023/02/02 11:54:53;;;;;;;14.67;2.50;;;10.10;99.90;;;;;;6362534;22;39308;-81
2023/02/02 11:57:30;;;;;;;19.88;2.83;;;10.10;99.90;;;;;;6312004;22;39416;-80
2023/02/02 12:00:25;;;;;;;17.00;2.00;;;10.10;99.90;;;;;;6362821;22;38238;-82
2023/02/02 12:03:01;;;;;;;20.00;2.53;;;10.10;99.90;;;;;;6350285;22;48902;-82
2023/02/02 12:06:07;;;;;;;17.13;2.40;;;10.20;99.90;;;;;;6358185;22;47500;-81
2023/02/02 12:08:44;;;;;;;19.53;2.87;;;10.20;99.90;;;;;;6285643;22;47919;-82
2023/02/02 12:11:40;;;;;;;14.03;2.40;;;10.30;99.90;;;;;;6324844;22;39103;-80
2023/02/02 12:17:44;;;;;;;19.03;2.60;;;10.30;99.90;;;;;;6332912;22;39768;-82
2023/02/02 12:20:36;;;;;;;15.82;3.45;;;10.30;99.90;;;;;;6330665;22;37566;-81
2023/02/02 12:23:35;;;;;;;23.80;3.70;;;10.40;99.90;;;;;;6290392;22;36899;-81
2023/02/02 12:26:09;;;;;;;21.63;3.23;;;10.30;99.90;;;;;;6330498;22;38187;-81
2023/02/02 12:29:02;;;;;;;12.77;2.30;;;10.30;99.90;;;;;;6333183;22;47149;-81
2023/02/02 12:32:05;;;;;;;18.05;2.30;;;10.30;99.90;;;;;;6328269;22;47014;-81
2023/02/02 12:34:57;;;;;;;20.58;2.30;;;10.30;99.90;;;;;;6323413;22;49891;-81
2023/02/02 12:38:02;;;;;;;16.15;2.40;;;10.30;99.90;;;;;;6324881;22;37304;-80
2023/02/02 12:40:55;;;;;;;14.50;2.73;;;10.30;99.90;;;;;;6231355;22;46995;-80
2023/02/02 12:43:32;;;;;;;16.33;2.57;;;10.30;99.90;;;;;;6229089;23;38727;-79
2023/02/02 12:46:20;;;;;;;17.90;2.93;;;10.20;99.90;;;;;;6315553;22;37106;-80
2023/02/02 14:01:20;;;;;;;15.10;3.43;;;8.80;99.90;;;;;;6319135;22;20054;-81
2023/02/02 14:04:09;;;;;;;14.53;3.67;;;8.80;99.90;;;;;;6288900;22;38600;-83
2023/02/02 14:07:42;;;;;;;14.63;3.20;;;8.80;99.90;;;;;;6349163;22;49396;-81
2023/02/02 14:19:41;;;;;;;25.83;4.10;;;8.80;99.90;;;;;;6324846;22;20007;-82
2023/02/02 14:56:13;;;;;;;27.17;5.40;;;8.70;99.90;;;;;;6356888;22;20011;-81
2023/02/02 14:58:59;;;;;;;26.50;4.47;;;8.70;99.90;;;;;;6345089;22;47913;-81
2023/02/02 15:01:50;;;;;;;20.73;4.47;;;8.80;99.90;;;;;;6338609;22;38274;-80
2023/02/02 15:04:20;;;;;;;21.20;6.37;;;8.80;99.90;;;;;;6361343;22;38986;-79
2023/02/02 15:06:54;;;;;;;25.03;4.20;;;8.80;99.90;;;;;;6321948;22;36176;-79
2023/02/02 15:17:47;;;;;;;16.40;3.30;;;9.00;99.90;;;;;;6364321;22;20015;-84
2023/02/02 15:34:20;;;;;;;31.13;5.57;;;8.80;99.90;;;;;;6275079;22;20025;-84
2023/02/02 16:22:10;;;;;;;21.13;3.77;;;9.20;99.90;;;;;;6285584;22;20148;-81
2023/02/02 16:33:47;;;;;;;9.97;3.10;;;9.10;99.90;;;;;;6291815;22;20020;-82
2023/02/02 16:41:37;;;;;;;10.77;3.50;;;9.10;99.90;;;;;;6315563;22;19903;-83
2023/02/02 16:50:43;;;;;;;17.40;4.10;;;9.10;99.90;;;;;;6298729;22;20007;-81
2023/02/02 16:55:47;;;;;;;17.47;3.67;;;9.10;99.90;;;;;;6363651;22;20220;-82
2023/02/02 16:58:20;;;;;;;16.00;3.90;;;9.00;99.90;;;;;;6403908;22;38854;-82
2023/02/02 17:05:59;;;;;;;23.07;4.63;;;8.90;99.90;;;;;;6320017;22;20022;-81
2023/02/02 17:11:53;;;;;;;16.40;4.80;;;8.90;99.90;;;;;;6365706;22;19996;-81
2023/02/02 17:14:32;;;;;;;18.53;4.00;;;8.90;99.90;;;;;;6357028;22;38603;-81
2023/02/02 17:16:58;;;;;;;14.10;3.33;;;8.90;99.90;;;;;;6326816;22;36910;-81
2023/02/02 17:19:28;;;;;;;22.67;3.97;;;8.90;99.90;;;;;;6352658;22;36226;-81
2023/02/02 17:21:56;;;;;;;23.40;4.80;;;8.90;99.90;;;;;;6328535;22;38849;-81
2023/02/02 17:24:22;;;;;;;23.50;4.77;;;8.90;99.90;;;;;;6325663;22;37368;-80
2023/02/02 17:26:48;;;;;;;26.67;5.53;;;8.90;99.90;;;;;;6353896;22;36874;-81
2023/02/02 17:29:18;;;;;;;27.37;5.73;;;8.90;99.90;;;;;;6354389;22;36811;-81
2023/02/02 17:31:44;;;;;;;21.07;5.23;;;8.80;99.90;;;;;;6330146;22;37962;-81
2023/02/02 17:34:14;;;;;;;18.73;4.93;;;8.80;99.90;;;;;;6357178;22;39288;-79
2023/02/02 17:36:40;;;;;;;19.43;5.73;;;8.80;99.90;;;;;;6334266;22;38766;-82
2023/02/02 17:39:07;;;;;;;22.57;5.90;;;8.70;99.90;;;;;;6365105;22;38443;-81
2023/02/02 17:41:33;;;;;;;22.10;6.00;;;8.60;99.90;;;;;;6338368;22;39109;-82
2023/02/02 17:43:59;;;;;;;32.53;6.77;;;8.60;99.90;;;;;;6367212;22;39708;-82
2023/02/02 17:46:29;;;;;;;23.30;6.80;;;8.50;99.90;;;;;;6363566;22;37924;-81
2023/02/02 17:48:56;;;;;;;23.00;4.20;;;8.50;99.90;;;;;;6363463;22;38432;-81
2023/02/02 17:54:12;;;;;;;13.63;3.70;;;8.60;99.90;;;;;;6362755;22;20012;-80
2023/02/02 17:56:39;;;;;;;18.57;3.73;;;8.50;99.90;;;;;;6322847;22;36159;-79
2023/02/02 17:59:05;;;;;;;12.73;2.97;;;8.50;99.90;;;;;;6320397;22;37904;-80
2023/02/02 18:01:32;;;;;;;23.80;4.80;;;8.50;99.90;;;;;;6355448;22;38825;-80
2023/02/02 18:03:59;;;;;;;22.30;3.73;;;8.50;99.90;;;;;;6350811;22;38732;-79
2023/02/02 18:06:25;;;;;;;23.60;4.50;;;8.50;99.90;;;;;;6341226;22;37848;-79
2023/02/02 18:08:51;;;;;;;23.63;4.23;;;8.40;99.90;;;;;;6347631;22;37951;-80
2023/02/02 18:11:17;;;;;;;22.57;5.47;;;8.50;99.90;;;;;;6342203;22;38743;-79
2023/02/02 18:13:43;;;;;;;20.43;4.57;;;8.40;99.90;;;;;;6339666;22;38394;-79
2023/02/02 18:16:10;;;;;;;19.97;3.83;;;8.40;99.90;;;;;;6309440;22;36787;-81
2023/02/02 18:18:37;;;;;;;33.43;5.00;;;8.30;99.90;;;;;;6340419;22;38147;-78
2023/02/02 18:21:08;;;;;;;24.73;5.63;;;8.30;99.90;;;;;;6337520;22;38589;-80
2023/02/02 18:23:34;;;;;;;26.07;4.67;;;8.30;99.90;;;;;;6311433;22;39269;-79
2023/02/02 18:26:11;;;;;;;30.33;5.53;;;8.30;99.90;;;;;;6336772;22;38914;-79
2023/02/02 18:28:38;;;;;;;22.10;5.63;;;8.30;99.90;;;;;;6308732;22;47206;-79
2023/02/02 18:31:09;;;;;;;22.93;5.20;;;8.30;99.90;;;;;;6311333;22;39093;-79
2023/02/02 18:33:36;;;;;;;21.77;4.63;;;8.40;99.90;;;;;;6330857;22;37731;-79
2023/02/02 18:36:07;;;;;;;17.17;4.73;;;8.40;99.90;;;;;;6338092;22;38084;-79
2023/02/02 18:38:33;;;;;;;20.73;4.57;;;8.40;99.90;;;;;;6293309;22;47304;-78
2023/02/02 18:41:00;;;;;;;19.90;3.90;;;8.40;99.90;;;;;;6304112;22;39564;-79
2023/02/02 18:43:26;;;;;;;20.77;4.93;;;8.40;99.90;;;;;;6333608;22;38662;-79
2023/02/02 18:45:58;;;;;;;18.20;4.43;;;8.40;99.90;;;;;;6306604;22;36891;-79
2023/02/02 18:48:24;;;;;;;16.27;3.57;;;8.40;99.90;;;;;;6312390;22;37737;-79
2023/02/02 18:50:50;;;;;;;18.73;4.80;;;8.40;99.90;;;;;;6336448;22;39375;-79
2023/02/02 18:53:16;;;;;;;19.57;5.37;;;8.40;99.90;;;;;;6337764;22;37292;-79
2023/02/02 18:55:43;;;;;;;21.27;4.07;;;8.50;99.90;;;;;;6336772;22;36461;-79
2023/02/02 18:58:13;;;;;;;14.23;4.53;;;8.50;99.90;;;;;;6339783;22;37563;-79
2023/02/02 19:00:43;;;;;;;25.60;4.77;;;8.60;99.90;;;;;;6335834;22;39813;-79
2023/02/02 19:03:09;;;;;;;27.80;4.67;;;8.60;99.90;;;;;;6306612;22;37694;-81
2023/02/02 19:08:19;;;;;;;32.00;4.20;;;8.60;99.90;;;;;;6336933;22;38586;-81
2023/02/02 19:10:45;;;;;;;17.63;4.40;;;8.60;99.90;;;;;;6335196;22;37945;-81
2023/02/02 19:13:19;;;;;;;23.23;4.37;;;8.60;99.90;;;;;;6337546;22;38474;-79
2023/02/02 19:15:48;;;;;;;16.63;3.67;;;8.70;99.90;;;;;;6321247;22;36896;-81
2023/02/02 19:18:19;;;;;;;12.63;3.77;;;8.60;99.90;;;;;;6328158;22;36963;-81
2023/02/02 19:20:45;;;;;;;18.37;3.93;;;8.70;99.90;;;;;;6305704;22;37533;-80
2023/02/02 19:23:15;;;;;;;17.57;3.63;;;8.70;99.90;;;;;;6298694;22;37902;-78
2023/02/02 19:25:47;;;;;;;23.90;4.33;;;8.70;99.90;;;;;;6338677;22;37738;-81
2023/02/02 19:28:25;;;;;;;27.23;3.95;;;8.70;99.90;;;;;;6312724;22;36033;-78
2023/02/02 19:30:53;;;;;;;24.90;4.60;;;8.80;99.90;;;;;;6333207;22;39106;-77
2023/02/02 19:33:22;;;;;;;24.07;4.73;;;8.80;99.90;;;;;;6304744;22;37878;-80
2023/02/02 19:35:51;;;;;;;24.70;4.47;;;8.80;99.90;;;;;;6318006;22;38100;-76
2023/02/02 19:38:19;;;;;;;19.50;4.10;;;8.80;99.90;;;;;;6282616;22;36142;-77
2023/02/02 19:40:45;;;;;;;21.80;4.50;;;8.80;99.90;;;;;;6330375;22;38954;-79
2023/02/02 19:43:12;;;;;;;25.83;3.97;;;8.80;99.90;;;;;;6330310;22;39367;-79
2023/02/02 19:45:39;;;;;;;28.13;4.03;;;8.80;99.90;;;;;;6330898;22;37559;-79
2023/02/02 19:48:17;;;;;;;29.27;4.10;;;8.80;99.90;;;;;;6302813;22;35976;-79